Time;durP1;ratioP1;P1;durP2;ratioP2;P2;SDS_P1;SDS_P2;PMS_P1;PMS_P2;Temp;Humidity;BMP_temperature;BMP_pressure;BME280_temperature;BME280_humidity;BME280_pressure;Samples;Min_cycle;Max_cycle;Signal;HPM_P1;HPM_P2
2023/09/27 00:00:11;;;;;;;;;;;;;;;17.04;56.03;101110.91;4949364;29;1190;-57
2023/09/27 00:02:40;;;;;;;;;;;;;;;16.87;55.61;101101.97;4948193;29;2544;-58
2023/09/27 00:05:07;;;;;;;;;;;;;;;16.81;55.23;101105.81;4953720;29;1030;-57
2023/09/27 00:07:39;;;;;;;;;;;;;;;16.75;55.06;101102.22;4955661;29;1220;-58
2023/09/27 00:10:05;;;;;;;;;;;;;;;16.70;55.01;101100.25;4961315;28;1094;-59
2023/09/27 00:12:34;;;;;;;;;;;;;;;16.66;54.61;101098.31;4958390;29;1127;-57
2023/09/27 00:15:02;;;;;;;;;;;;;;;16.61;54.78;101088.13;4950591;29;1894;-57
2023/09/27 00:17:28;;;;;;;;;;;;;;;16.60;54.73;101089.22;4960537;29;1074;-58
2023/09/27 00:19:53;;;;;;;;;;;;;;;16.53;54.59;101094.13;4961046;29;1089;-57
2023/09/27 00:22:19;;;;;;;;;;;;;;;16.50;54.61;101087.22;4960367;29;1036;-57
2023/09/27 00:24:44;;;;;;;;;;;;;;;16.49;54.37;101087.50;4960332;29;950;-59
2023/09/27 00:27:12;;;;;;;;;;;;;;;17.40;57.70;101089.03;4948029;29;1029;-56
2023/09/27 00:29:38;;;;;;;;;;;;;;;17.35;57.26;101086.25;4950576;29;858;-58
2023/09/27 00:32:04;;;;;;;;;;;;;;;17.02;56.77;101082.84;4956182;29;1856;-58
2023/09/27 00:34:30;;;;;;;;;;;;;;;16.97;56.03;101084.75;4960701;29;1958;-58
2023/09/27 00:36:56;;;;;;;;;;;;;;;16.85;55.54;101082.22;4958087;29;1149;-61
2023/09/27 00:39:21;;;;;;;;;;;;;;;16.74;55.42;101084.88;4951016;29;1069;-59
2023/09/27 00:41:47;;;;;;;;;;;;;;;16.75;54.77;101081.06;4957329;29;1112;-55
2023/09/27 00:44:12;;;;;;;;;;;;;;;16.68;54.73;101085.97;4950103;29;1061;-56
2023/09/27 00:46:38;;;;;;;;;;;;;;;16.63;54.75;101088.69;4958894;29;1418;-56
2023/09/27 00:49:04;;;;;;;;;;;;;;;16.57;54.53;101089.75;4960601;29;1041;-58
2023/09/27 00:51:29;;;;;;;;;;;;;;;16.55;54.53;101100.16;4944515;29;1017;-58
2023/09/27 00:53:55;;;;;;;;;;;;;;;16.45;54.64;101091.88;4941532;29;1081;-58
2023/09/27 00:56:21;;;;;;;;;;;;;;;16.47;54.26;101089.69;4955151;29;1914;-58
2023/09/27 00:58:47;;;;;;;;;;;;;;;16.45;54.63;101095.44;4958460;29;1065;-58
2023/09/27 01:01:15;;;;;;;;;;;;;;;17.35;57.19;101090.91;4959632;28;2012;-58
2023/09/27 01:03:41;;;;;;;;;;;;;;;17.38;57.45;101088.47;4949640;29;1588;-60
2023/09/27 01:06:07;;;;;;;;;;;;;;;17.06;57.14;101091.38;4947143;29;1252;-57
2023/09/27 01:08:32;;;;;;;;;;;;;;;16.88;56.58;101087.16;4959860;29;1045;-58
2023/09/27 01:10:58;;;;;;;;;;;;;;;16.81;55.98;101083.84;4960184;29;1192;-60
2023/09/27 01:13:23;;;;;;;;;;;;;;;16.76;55.73;101077.22;4960267;29;1080;-58
2023/09/27 01:15:49;;;;;;;;;;;;;;;16.68;55.29;101074.97;4947632;29;1982;-58
2023/09/27 01:18:15;;;;;;;;;;;;;;;16.68;55.07;101077.72;4956909;29;878;-59
2023/09/27 01:20:40;;;;;;;;;;;;;;;16.63;54.86;101077.69;4957472;29;1172;-58
2023/09/27 01:23:06;;;;;;;;;;;;;;;16.54;54.87;101069.16;4949885;29;1107;-56
2023/09/27 01:25:35;;;;;;;;;;;;;;;16.51;54.73;101066.09;4959675;29;1037;-57
2023/09/27 01:28:01;;;;;;;;;;;;;;;16.48;54.96;101069.38;4949394;29;1205;-57
2023/09/27 01:30:33;;;;;;;;;;;;;;;17.52;57.50;101061.25;4952498;29;1088;-59
2023/09/27 01:33:06;;;;;;;;;;;;;;;17.31;57.67;101063.16;4959962;29;2122;-59
2023/09/27 01:35:35;;;;;;;;;;;;;;;17.01;56.92;101056.50;4959474;29;1910;-57
2023/09/27 01:38:00;;;;;;;;;;;;;;;16.90;56.33;101060.25;4958520;29;1588;-57
2023/09/27 01:40:30;;;;;;;;;;;;;;;16.85;55.76;101065.72;4959124;29;1053;-57
2023/09/27 01:42:59;;;;;;;;;;;;;;;16.77;55.38;101069.81;4947760;29;914;-56
2023/09/27 01:45:25;;;;;;;;;;;;;;;16.75;55.13;101063.75;4957575;29;1475;-56
2023/09/27 01:47:50;;;;;;;;;;;;;;;16.65;55.01;101064.53;4947490;29;1137;-58
2023/09/27 01:50:19;;;;;;;;;;;;;;;16.57;55.06;101067.78;4958695;29;1096;-58
2023/09/27 01:52:48;;;;;;;;;;;;;;;16.51;54.92;101063.34;4959225;29;1073;-56
2023/09/27 01:55:13;;;;;;;;;;;;;;;16.49;54.83;101063.63;4941982;29;1915;-57
2023/09/27 01:57:39;;;;;;;;;;;;;;;16.49;54.62;101065.53;4955094;28;1133;-57
2023/09/27 02:00:11;;;;;;;;;;;;;;;17.40;57.90;101060.69;4944879;29;1606;-57
2023/09/27 02:02:38;;;;;;;;;;;;;;;17.27;57.29;101059.28;4946133;29;2684;-57
2023/09/27 02:05:04;;;;;;;;;;;;;;;17.06;56.66;101064.72;4959216;29;1017;-58
2023/09/27 02:07:30;;;;;;;;;;;;;;;16.87;56.45;101063.53;4956371;29;887;-58
2023/09/27 02:09:55;;;;;;;;;;;;;;;16.80;55.80;101063.75;4938840;29;1064;-57
2023/09/27 02:12:21;;;;;;;;;;;;;;;16.74;55.39;101068.41;4940126;29;1132;-57
2023/09/27 02:14:46;;;;;;;;;;;;;;;16.65;55.42;101052.72;4956933;28;1918;-57
2023/09/27 02:17:12;;;;;;;;;;;;;;;16.62;54.99;101056.84;4957664;29;1121;-59
2023/09/27 02:19:37;;;;;;;;;;;;;;;16.56;54.82;101060.63;4945415;29;1357;-57
2023/09/27 02:22:03;;;;;;;;;;;;;;;16.55;54.57;101053.50;4958666;29;1037;-57
2023/09/27 02:24:29;;;;;;;;;;;;;;;16.68;55.80;101054.94;4951808;29;1183;-57
2023/09/27 02:26:54;;;;;;;;;;;;;;;17.63;57.78;101056.63;4951939;29;1537;-57
2023/09/27 02:29:20;;;;;;;;;;;;;;;17.18;57.42;101066.41;4951541;29;1160;-57
2023/09/27 02:31:45;;;;;;;;;;;;;;;16.98;56.81;101067.19;4954094;29;2247;-57
2023/09/27 02:34:12;;;;;;;;;;;;;;;16.87;56.32;101061.63;4958223;29;1093;-56
2023/09/27 02:36:38;;;;;;;;;;;;;;;16.77;55.94;101062.41;4945365;29;1911;-56
2023/09/27 02:39:04;;;;;;;;;;;;;;;16.77;55.11;101061.56;4950935;29;1049;-58
2023/09/27 02:41:29;;;;;;;;;;;;;;;16.64;55.30;101062.06;4952353;29;1062;-57
2023/09/27 02:43:55;;;;;;;;;;;;;;;16.60;55.07;101061.75;4945673;29;1100;-58
2023/09/27 02:46:22;;;;;;;;;;;;;;;16.58;54.87;101064.78;4956662;29;1042;-58
2023/09/27 02:48:48;;;;;;;;;;;;;;;16.54;54.81;101057.34;4957153;29;1137;-57
2023/09/27 02:51:15;;;;;;;;;;;;;;;16.53;54.79;101061.19;4957071;29;1069;-56
2023/09/27 02:53:41;;;;;;;;;;;;;;;17.35;57.82;101072.50;4946881;29;1138;-57
2023/09/27 02:56:07;;;;;;;;;;;;;;;17.30;57.78;101064.25;4957799;29;1957;-57
2023/09/27 02:58:32;;;;;;;;;;;;;;;16.99;57.22;101068.84;4948849;29;1230;-57
2023/09/27 03:00:58;;;;;;;;;;;;;;;16.91;56.28;101068.28;4951480;29;1872;-57
2023/09/27 03:03:24;;;;;;;;;;;;;;;16.85;55.75;101068.47;4947445;29;1002;-56
2023/09/27 03:05:50;;;;;;;;;;;;;;;16.72;55.43;101065.13;4956038;29;1330;-57
2023/09/27 03:08:16;;;;;;;;;;;;;;;16.70;55.38;101071.97;4951174;29;1047;-57
2023/09/27 03:10:42;;;;;;;;;;;;;;;16.57;55.17;101065.03;4938003;29;1201;-56
2023/09/27 03:13:09;;;;;;;;;;;;;;;16.55;55.05;101067.22;4951430;29;1100;-57
2023/09/27 03:15:35;;;;;;;;;;;;;;;16.60;55.68;101067.25;4950008;29;1906;-57
2023/09/27 03:18:01;;;;;;;;;;;;;;;17.64;57.88;101072.00;4957859;28;1208;-57
2023/09/27 03:20:27;;;;;;;;;;;;;;;17.23;57.42;101071.94;4950852;29;1169;-57
2023/09/27 03:22:53;;;;;;;;;;;;;;;17.02;56.77;101069.09;4957736;29;1013;-56
2023/09/27 03:25:18;;;;;;;;;;;;;;;16.91;55.93;101075.66;4956322;28;1117;-56
2023/09/27 03:27:43;;;;;;;;;;;;;;;16.85;55.63;101072.03;4956663;29;1089;-57
2023/09/27 03:30:10;;;;;;;;;;;;;;;16.79;55.22;101070.38;4954585;29;998;-57
2023/09/27 03:32:38;;;;;;;;;;;;;;;16.68;55.22;101069.50;4956526;29;2655;-59
2023/09/27 03:35:04;;;;;;;;;;;;;;;16.58;54.97;101077.69;4943686;29;1906;-59
2023/09/27 03:37:30;;;;;;;;;;;;;;;16.58;54.90;101072.19;4949329;29;1208;-59
2023/09/27 03:39:56;;;;;;;;;;;;;;;16.49;54.79;101066.34;4952203;29;1148;-60
2023/09/27 03:42:22;;;;;;;;;;;;;;;16.51;54.55;101079.81;4953499;29;1095;-58
2023/09/27 03:44:51;;;;;;;;;;;;;;;17.27;57.39;101078.53;4950627;29;2183;-60
2023/09/27 03:47:17;;;;;;;;;;;;;;;17.42;57.42;101077.75;4957391;29;1069;-62
2023/09/27 03:49:42;;;;;;;;;;;;;;;17.10;56.74;101073.28;4956264;29;1391;-58
2023/09/27 03:52:08;;;;;;;;;;;;;;;16.93;56.50;101077.03;4956490;29;1260;-59
2023/09/27 03:54:33;;;;;;;;;;;;;;;16.80;56.17;101076.69;4945736;29;1906;-58
2023/09/27 03:57:01;;;;;;;;;;;;;;;16.81;55.71;101073.66;4956028;29;1438;-60
2023/09/27 03:59:27;;;;;;;;;;;;;;;16.72;55.76;101076.09;4956249;29;1161;-54
2023/09/27 04:01:53;;;;;;;;;;;;;;;16.70;55.30;101075.53;4948847;29;2625;-56
2023/09/27 04:04:18;;;;;;;;;;;;;;;16.62;55.19;101076.06;4940183;29;1124;-52
2023/09/27 04:06:44;;;;;;;;;;;;;;;16.57;55.11;101071.34;4951713;29;1196;-57
2023/09/27 04:09:10;;;;;;;;;;;;;;;17.50;57.80;101076.38;4951464;29;1082;-57
2023/09/27 04:11:36;;;;;;;;;;;;;;;17.34;57.98;101079.09;4956582;29;1045;-57
2023/09/27 04:14:01;;;;;;;;;;;;;;;17.06;56.92;101080.41;4955128;29;997;-57
2023/09/27 04:16:30;;;;;;;;;;;;;;;16.96;56.41;101086.69;4944045;29;1903;-59
2023/09/27 04:18:56;;;;;;;;;;;;;;;16.87;55.95;101080.84;4950965;29;1113;-57
2023/09/27 04:21:21;;;;;;;;;;;;;;;16.79;55.63;101081.34;4956616;28;1254;-56
2023/09/27 04:23:52;;;;;;;;;;;;;;;16.70;55.53;101085.69;4952262;28;1123;-57
2023/09/27 04:26:18;;;;;;;;;;;;;;;16.64;55.65;101087.59;4956837;29;1057;-57
2023/09/27 04:28:43;;;;;;;;;;;;;;;16.56;55.64;101097.16;4957541;29;1027;-54
2023/09/27 04:31:09;;;;;;;;;;;;;;;16.58;55.32;101088.66;4956736;29;2054;-56
2023/09/27 04:33:34;;;;;;;;;;;;;;;16.51;55.44;101088.06;4956763;29;1077;-55
2023/09/27 04:36:00;;;;;;;;;;;;;;;17.00;57.70;101087.78;4944362;28;2332;-53
2023/09/27 04:38:25;;;;;;;;;;;;;;;17.09;60.52;101075.16;4959436;29;1002;-54
2023/09/27 04:40:51;;;;;;;;;;;;;;;17.56;61.63;101080.81;4947740;29;1136;-55
2023/09/27 04:43:17;;;;;;;;;;;;;;;17.03;58.59;101084.50;4953105;29;990;-54
2023/09/27 04:45:42;;;;;;;;;;;;;;;16.85;55.48;101079.47;4953798;29;1065;-55
2023/09/27 04:48:08;;;;;;;;;;;;;;;16.69;53.72;101084.88;4951180;29;1138;-55
2023/09/27 04:50:34;;;;;;;;;;;;;;;16.63;52.06;101080.44;4960033;29;1046;-52
2023/09/27 04:53:00;;;;;;;;;;;;;;;16.56;51.19;101086.19;4960512;29;1096;-54
2023/09/27 04:55:25;;;;;;;;;;;;;;;16.56;50.42;101082.59;4956535;29;1902;-52
2023/09/27 04:57:51;;;;;;;;;;;;;;;16.47;49.93;101089.69;4960781;29;1041;-53
2023/09/27 05:00:19;;;;;;;;;;;;;;;16.54;49.06;101090.28;4960182;29;1164;-50
2023/09/27 05:02:45;;;;;;;;;;;;;;;16.39;49.16;101094.56;4958515;29;1801;-50
2023/09/27 05:05:11;;;;;;;;;;;;;;;16.41;48.70;101089.66;4960707;29;1129;-51
2023/09/27 05:07:36;;;;;;;;;;;;;;;16.40;48.63;101093.50;4953843;29;1212;-54
2023/09/27 05:10:02;;;;;;;;;;;;;;;16.35;48.33;101096.19;4952522;29;1153;-51
2023/09/27 05:12:28;;;;;;;;;;;;;;;16.37;47.87;101101.44;4955550;29;1010;-55
2023/09/27 05:14:53;;;;;;;;;;;;;;;16.35;47.98;101098.94;4960086;29;1973;-54
2023/09/27 05:17:19;;;;;;;;;;;;;;;16.38;47.80;101097.59;4959801;29;1033;-60
2023/09/27 05:19:44;;;;;;;;;;;;;;;17.00;50.42;101096.03;4959295;29;874;-52
2023/09/27 05:22:11;;;;;;;;;;;;;;;16.75;49.97;101097.53;4960416;28;1152;-50
2023/09/27 05:24:38;;;;;;;;;;;;;;;16.54;49.49;101099.34;4959855;29;1050;-53
2023/09/27 05:27:05;;;;;;;;;;;;;;;16.59;48.40;101102.13;4959808;28;1087;-51
2023/09/27 05:29:31;;;;;;;;;;;;;;;16.48;48.21;101097.66;4963055;28;1382;-53
2023/09/27 05:31:56;;;;;;;;;;;;;;;16.46;48.00;101093.53;4955705;29;1106;-54
2023/09/27 05:34:22;;;;;;;;;;;;;;;16.48;47.66;101094.94;4959762;29;1105;-53
2023/09/27 05:36:48;;;;;;;;;;;;;;;16.44;47.30;101091.06;4960300;29;1981;-55
2023/09/27 05:39:13;;;;;;;;;;;;;;;16.42;47.47;101096.81;4947138;28;1073;-52
2023/09/27 05:41:39;;;;;;;;;;;;;;;16.34;47.34;101091.81;4951411;29;999;-55
2023/09/27 05:44:04;;;;;;;;;;;;;;;16.38;47.44;101084.72;4956187;29;1331;-54
2023/09/27 05:46:32;;;;;;;;;;;;;;;16.39;47.31;101094.56;4959182;28;1338;-57
2023/09/27 05:48:57;;;;;;;;;;;;;;;16.38;46.97;101092.94;4946258;28;1126;-58
2023/09/27 05:51:23;;;;;;;;;;;;;;;16.33;47.19;101094.81;4959582;29;1313;-60
2023/09/27 05:53:52;;;;;;;;;;;;;;;16.39;46.74;101088.28;4959419;29;1177;-59
2023/09/27 05:56:17;;;;;;;;;;;;;;;17.13;48.95;101096.63;4958842;29;1910;-55
2023/09/27 05:58:43;;;;;;;;;;;;;;;16.79;48.95;101099.75;4955127;29;1096;-55
2023/09/27 06:01:10;;;;;;;;;;;;;;;16.52;48.94;101101.53;4950899;29;1289;-56
2023/09/27 06:03:38;;;;;;;;;;;;;;;16.58;48.08;101097.72;4956945;29;1121;-52
2023/09/27 06:06:04;;;;;;;;;;;;;;;16.56;47.69;101099.91;4958959;28;993;-55
2023/09/27 06:08:30;;;;;;;;;;;;;;;16.42;47.97;101110.53;4958008;29;1033;-54
2023/09/27 06:10:55;;;;;;;;;;;;;;;16.50;47.54;101098.22;4946746;29;1057;-54
2023/09/27 06:13:21;;;;;;;;;;;;;;;16.45;47.55;101097.34;4959710;29;1205;-53
2023/09/27 06:15:46;;;;;;;;;;;;;;;16.54;47.33;101104.84;4958830;29;1914;-57
2023/09/27 06:18:12;;;;;;;;;;;;;;;16.55;46.95;101102.91;4959296;28;1037;-57
2023/09/27 06:20:38;;;;;;;;;;;;;;;16.58;47.56;101097.72;4944443;29;973;-51
2023/09/27 06:23:04;;;;;;;;;;;;;;;17.29;50.15;101098.31;4958033;29;1154;-59
2023/09/27 06:25:30;;;;;;;;;;;;;;;17.09;51.19;101086.16;4968714;28;1397;-58
2023/09/27 06:28:00;;;;;;;;;;;;;;;17.07;51.29;101098.53;4959228;29;1452;-58
2023/09/27 06:30:26;;;;;;;;;;;;;;;16.99;49.96;101091.63;4958727;28;1005;-58
2023/09/27 06:32:51;;;;;;;;;;;;;;;17.13;50.70;101091.16;4958236;29;867;-54
2023/09/27 06:35:17;;;;;;;;;;;;;;;17.05;52.05;101095.22;4955893;28;1985;-56
2023/09/27 06:37:43;;;;;;;;;;;;;;;17.20;51.92;101102.69;4947049;29;979;-51
2023/09/27 06:40:16;;;;;;;;;;;;;;;17.43;51.53;101102.22;4955269;29;1038;-56
2023/09/27 06:42:45;;;;;;;;;;;;;;;17.28;51.20;101099.44;4957268;29;1153;-55
2023/09/27 06:45:10;;;;;;;;;;;;;;;17.32;51.17;101096.94;4947291;29;929;-55
2023/09/27 06:47:38;;;;;;;;;;;;;;;17.32;51.80;101100.53;4958203;28;1061;-59
2023/09/27 06:50:04;;;;;;;;;;;;;;;17.53;51.47;101111.56;4958959;29;1165;-58
2023/09/27 06:52:29;;;;;;;;;;;;;;;17.59;50.88;101105.81;4958353;29;1132;-51
2023/09/27 06:54:55;;;;;;;;;;;;;;;17.48;50.08;101104.16;4958552;29;1906;-55
2023/09/27 06:57:21;;;;;;;;;;;;;;;17.46;49.28;101106.34;4953896;29;947;-54
2023/09/27 06:59:46;;;;;;;;;;;;;;;17.34;49.02;101105.78;4957478;28;1132;-62
2023/09/27 07:02:12;;;;;;;;;;;;;;;17.34;48.26;101108.53;4958722;29;1053;-53
2023/09/27 07:04:38;;;;;;;;;;;;;;;17.10;48.55;101109.81;4953713;29;1239;-52
2023/09/27 07:07:04;;;;;;;;;;;;;;;16.62;50.88;101109.00;4949757;29;1244;-52
2023/09/27 07:09:33;;;;;;;;;;;;;;;17.01;50.06;101118.84;4944401;29;1101;-53
2023/09/27 07:11:58;;;;;;;;;;;;;;;16.98;50.12;101117.44;4958097;29;1057;-57
2023/09/27 07:14:24;;;;;;;;;;;;;;;16.97;49.96;101121.31;4957525;28;1137;-58
2023/09/27 07:16:50;;;;;;;;;;;;;;;16.96;49.79;101113.31;4957760;29;2003;-59
2023/09/27 07:19:17;;;;;;;;;;;;;;;17.16;49.14;101123.56;4957937;29;1049;-56
2023/09/27 07:21:43;;;;;;;;;;;;;;;17.15;48.54;101111.72;4948015;29;934;-58
2023/09/27 07:24:09;;;;;;;;;;;;;;;17.19;48.25;101123.84;4957667;29;1402;-56
2023/09/27 07:26:35;;;;;;;;;;;;;;;17.18;48.04;101116.72;4958184;29;1133;-52
2023/09/27 07:29:01;;;;;;;;;;;;;;;17.18;47.87;101118.63;4957627;29;1173;-54
2023/09/27 07:31:26;;;;;;;;;;;;;;;17.16;47.73;101123.56;4957483;29;1223;-53
2023/09/27 07:33:55;;;;;;;;;;;;;;;17.14;47.48;101115.59;4952260;29;1142;-52
2023/09/27 07:36:24;;;;;;;;;;;;;;;17.18;47.29;101116.72;4955401;28;1907;-53
2023/09/27 07:38:55;;;;;;;;;;;;;;;17.15;47.18;101125.47;4947572;29;1137;-51
2023/09/27 07:41:21;;;;;;;;;;;;;;;17.12;47.18;101112.28;4957269;28;1038;-55
2023/09/27 07:43:47;;;;;;;;;;;;;;;17.02;47.52;101123.25;4957967;29;1323;-58
2023/09/27 07:46:14;;;;;;;;;;;;;;;17.13;47.10;101127.69;4957414;28;1077;-54
2023/09/27 07:48:41;;;;;;;;;;;;;;;17.05;47.19;101118.00;4956857;28;1279;-57
2023/09/27 07:51:13;;;;;;;;;;;;;;;17.02;46.98;101121.31;4961115;28;1148;-56
2023/09/27 07:53:38;;;;;;;;;;;;;;;17.07;46.94;101110.34;4963380;28;1101;-56
2023/09/27 07:56:06;;;;;;;;;;;;;;;17.09;46.92;101112.81;4955883;28;1906;-56
2023/09/27 07:58:33;;;;;;;;;;;;;;;17.05;46.59;101117.19;4952519;29;1049;-57
2023/09/27 08:00:58;;;;;;;;;;;;;;;17.02;46.96;101101.25;4956842;29;1314;-57
2023/09/27 08:03:25;;;;;;;;;;;;;;;17.02;46.84;101093.00;4957791;29;1061;-58
2023/09/27 08:05:50;;;;;;;;;;;;;;;17.01;47.07;101119.69;4960378;28;1231;-54
2023/09/27 08:08:16;;;;;;;;;;;;;;;16.97;47.16;101123.22;4951882;28;1307;-53
2023/09/27 08:10:45;;;;;;;;;;;;;;;17.07;46.92;101120.53;4951888;28;1167;-53
2023/09/27 08:13:14;;;;;;;;;;;;;;;17.08;47.08;101117.50;4961226;29;1084;-56
2023/09/27 08:15:40;;;;;;;;;;;;;;;17.08;46.90;101111.16;4961448;29;1910;-51
2023/09/27 08:18:06;;;;;;;;;;;;;;;17.03;47.24;101122.16;4970303;28;1443;-49
2023/09/27 08:20:32;;;;;;;;;;;;;;;16.96;47.13;101122.38;4958465;29;1211;-49
2023/09/27 08:22:58;;;;;;;;;;;;;;;17.12;46.93;101100.47;4966055;28;1132;-56
2023/09/27 08:25:23;;;;;;;;;;;;;;;17.01;47.13;101116.94;4970432;28;1263;-54
2023/09/27 08:27:50;;;;;;;;;;;;;;;17.06;47.25;101122.41;4961016;29;1080;-51
2023/09/27 08:30:16;;;;;;;;;;;;;;;17.06;47.01;101110.63;4965373;28;1420;-49
2023/09/27 08:32:41;;;;;;;;;;;;;;;17.10;47.06;101111.72;4956536;28;1038;-51
2023/09/27 08:35:07;;;;;;;;;;;;;;;17.10;46.91;101126.28;4943603;29;1983;-51
2023/09/27 08:37:32;;;;;;;;;;;;;;;17.04;47.20;101121.03;4960661;29;1061;-51
2023/09/27 08:39:58;;;;;;;;;;;;;;;17.15;46.88;101116.41;4961119;29;1139;-53
2023/09/27 08:42:23;;;;;;;;;;;;;;;17.05;47.05;101134.50;4960849;28;1072;-48
2023/09/27 08:44:50;;;;;;;;;;;;;;;17.06;47.06;101116.94;4962603;28;1312;-52
2023/09/27 08:47:16;;;;;;;;;;;;;;;17.14;46.84;101120.25;4970088;28;1437;-49
2023/09/27 08:49:41;;;;;;;;;;;;;;;17.04;46.92;101124.63;4959921;29;1235;-56
2023/09/27 08:52:07;;;;;;;;;;;;;;;17.03;46.76;101120.22;4960320;28;1381;-56
2023/09/27 08:54:33;;;;;;;;;;;;;;;17.03;46.88;101125.72;4965327;28;1977;-54
2023/09/27 08:56:58;;;;;;;;;;;;;;;17.05;46.96;101128.19;4957830;28;1205;-58
2023/09/27 08:59:24;;;;;;;;;;;;;;;17.05;46.74;101136.44;4956456;28;1433;-47
2023/09/27 09:01:50;;;;;;;;;;;;;;;16.92;47.05;101135.00;4953814;28;1622;-58
2023/09/27 09:04:15;;;;;;;;;;;;;;;17.10;46.86;101130.97;4959530;28;1402;-55
2023/09/27 09:06:41;;;;;;;;;;;;;;;17.07;46.73;101148.81;4950709;28;1117;-53
2023/09/27 09:09:13;;;;;;;;;;;;;;;17.01;47.05;101149.91;4949948;29;1157;-56
2023/09/27 09:11:57;;;;;;;;;;;;;;;17.07;47.09;101146.06;4952233;29;1089;-54
2023/09/27 09:14:39;;;;;;;;;;;;;;;17.14;47.10;101150.47;4957603;29;971;-53
2023/09/27 09:17:07;;;;;;;;;;;;;;;17.07;47.38;101148.00;4947670;29;1136;-55
2023/09/27 09:19:34;;;;;;;;;;;;;;;17.13;47.79;101152.41;4946577;29;1086;-55
2023/09/27 09:22:04;;;;;;;;;;;;;;;17.09;47.29;101138.38;4958135;29;1033;-55
2023/09/27 09:24:31;;;;;;;;;;;;;;;17.13;47.60;101140.59;4960179;29;1033;-50
2023/09/27 09:27:03;;;;;;;;;;;;;;;17.12;47.35;101147.19;4959995;29;1165;-56
2023/09/27 09:29:58;;;;;;;;;;;;;;;17.16;47.45;101145.56;4959984;29;1141;-54
2023/09/27 09:32:25;;;;;;;;;;;;;;;17.09;47.14;101146.59;4945405;29;1301;-54
2023/09/27 09:34:51;;;;;;;;;;;;;;;17.03;47.41;101141.38;4958384;29;1904;-56
2023/09/27 09:37:20;;;;;;;;;;;;;;;17.10;47.21;101142.78;4959304;29;1053;-58
2023/09/27 09:39:46;;;;;;;;;;;;;;;17.03;47.62;101139.44;4947458;29;1242;-57
2023/09/27 09:42:12;;;;;;;;;;;;;;;17.14;47.09;101144.97;4947065;29;1105;-55
2023/09/27 09:44:39;;;;;;;;;;;;;;;17.12;47.35;101139.75;4959102;29;994;-54
2023/09/27 09:47:11;;;;;;;;;;;;;;;17.10;47.28;101141.97;4952981;29;938;-54
2023/09/27 09:49:37;;;;;;;;;;;;;;;17.09;47.63;101143.88;4953793;29;1183;-57
2023/09/27 09:52:03;;;;;;;;;;;;;;;17.05;47.68;101139.19;4951825;28;1239;-58
2023/09/27 09:54:29;;;;;;;;;;;;;;;17.12;47.56;101136.19;4959411;29;1205;-59
2023/09/27 09:56:57;;;;;;;;;;;;;;;17.16;47.45;101140.06;4959518;29;1906;-58
2023/09/27 09:59:25;;;;;;;;;;;;;;;17.14;47.24;101137.59;4952215;28;1266;-58
2023/09/27 10:01:51;;;;;;;;;;;;;;;17.18;47.16;101137.84;4952146;29;1085;-55
2023/09/27 10:04:16;;;;;;;;;;;;;;;17.19;47.12;101131.28;4959293;29;998;-57
2023/09/27 10:06:42;;;;;;;;;;;;;;;17.11;47.11;101138.13;4957931;29;1284;-56
2023/09/27 10:09:13;;;;;;;;;;;;;;;17.18;47.10;101132.34;4956628;29;1125;-54
2023/09/27 10:11:39;;;;;;;;;;;;;;;17.18;46.78;101121.38;4953248;28;1089;-54
2023/09/27 10:14:05;;;;;;;;;;;;;;;17.12;47.17;101130.69;4959227;28;1133;-52
2023/09/27 10:16:31;;;;;;;;;;;;;;;17.08;47.26;101134.00;4958170;29;1992;-54
2023/09/27 10:18:56;;;;;;;;;;;;;;;17.16;47.09;101134.56;4943384;29;1225;-56
2023/09/27 10:21:22;;;;;;;;;;;;;;;17.21;47.18;101126.34;4952316;28;1444;-53
2023/09/27 10:23:52;;;;;;;;;;;;;;;17.09;47.41;101121.88;4949273;29;1197;-58
2023/09/27 10:26:18;;;;;;;;;;;;;;;17.14;47.48;101131.25;4959459;29;1073;-56
2023/09/27 10:29:06;;;;;;;;;;;;;;;17.07;47.50;101121.34;4958806;29;1073;-55
2023/09/27 10:31:32;;;;;;;;;;;;;;;17.18;47.42;101132.34;4951487;28;1089;-55
2023/09/27 10:33:57;;;;;;;;;;;;;;;17.14;47.23;101134.84;4945808;28;1157;-56
2023/09/27 10:36:22;;;;;;;;;;;;;;;17.14;47.05;101123.84;4958087;28;1910;-54
2023/09/27 10:38:51;;;;;;;;;;;;;;;17.17;47.01;101130.72;4958648;28;1074;-54
2023/09/27 10:41:32;;;;;;;;;;;;;;;17.18;46.99;101124.13;4958663;28;1137;-54
2023/09/27 10:44:00;;;;;;;;;;;;;;;17.10;47.39;101129.03;4958503;28;1180;-59
2023/09/27 10:46:27;;;;;;;;;;;;;;;17.15;47.44;101119.16;4957421;28;1299;-57
2023/09/27 10:48:56;;;;;;;;;;;;;;;17.20;47.29;101121.94;4956468;28;1311;-58
2023/09/27 10:51:21;;;;;;;;;;;;;;;17.21;47.09;101120.84;4958192;28;1129;-52
2023/09/27 10:53:48;;;;;;;;;;;;;;;17.19;47.03;101123.03;4958121;28;1169;-56
2023/09/27 10:56:14;;;;;;;;;;;;;;;17.21;47.23;101109.84;4957816;28;1988;-49
2023/09/27 10:58:52;;;;;;;;;;;;;;;17.27;47.22;101115.06;4948042;29;1092;-54
2023/09/27 11:01:20;;;;;;;;;;;;;;;17.19;47.17;101129.34;4953972;29;1023;-52
2023/09/27 11:03:46;;;;;;;;;;;;;;;17.15;47.26;101127.41;4945960;29;1108;-54
2023/09/27 11:06:12;;;;;;;;;;;;;;;17.05;47.70;101112.53;4951163;29;1065;-51
2023/09/27 11:08:39;;;;;;;;;;;;;;;17.08;47.38;101112.00;4940036;29;1038;-53
2023/09/27 11:11:08;;;;;;;;;;;;;;;17.27;46.82;101126.06;4944293;29;1231;-56
2023/09/27 11:13:34;;;;;;;;;;;;;;;17.16;47.18;101126.31;4947869;29;1084;-53
2023/09/27 11:16:06;;;;;;;;;;;;;;;17.19;46.93;101117.53;4954417;29;1946;-52
2023/09/27 11:18:35;;;;;;;;;;;;;;;17.08;47.12;101123.00;4958554;28;1065;-54
2023/09/27 11:21:07;;;;;;;;;;;;;;;17.06;46.88;101108.69;4958157;29;1117;-51
2023/09/27 11:23:52;;;;;;;;;;;;;;;17.08;46.98;101112.00;4946335;28;2309;-57
2023/09/27 11:26:19;;;;;;;;;;;;;;;17.14;46.95;101104.59;4957074;29;1805;-55
2023/09/27 11:29:00;;;;;;;;;;;;;;;17.14;46.96;101103.75;4957227;29;1865;-58
2023/09/27 11:31:29;;;;;;;;;;;;;;;17.12;47.12;101111.47;4950425;29;2079;-52
2023/09/27 11:34:09;;;;;;;;;;;;;;;17.17;47.28;101114.25;4947910;29;2327;-56
2023/09/27 11:36:41;;;;;;;;;;;;;;;17.07;47.51;101110.34;4949530;29;1940;-54
2023/09/27 11:39:07;;;;;;;;;;;;;;;17.13;47.41;101119.44;4947851;29;2233;-57
2023/09/27 11:41:32;;;;;;;;;;;;;;;17.10;47.23;101106.25;4954419;29;1199;-57
2023/09/27 11:43:58;;;;;;;;;;;;;;;17.21;46.73;101118.09;4957197;29;1070;-55
2023/09/27 11:46:27;;;;;;;;;;;;;;;17.14;47.06;101103.75;4952290;28;1191;-51
2023/09/27 11:48:53;;;;;;;;;;;;;;;17.11;46.87;101107.91;4960556;29;1103;-53
2023/09/27 11:51:19;;;;;;;;;;;;;;;17.13;47.03;101104.88;4961918;29;1110;-52
2023/09/27 11:53:45;;;;;;;;;;;;;;;17.10;47.12;101104.31;4961775;29;1157;-52
2023/09/27 11:56:11;;;;;;;;;;;;;;;17.15;47.11;101110.91;4961345;29;2004;-52
2023/09/27 11:58:37;;;;;;;;;;;;;;;17.20;47.11;101103.53;4953911;29;1271;-47
2023/09/27 12:01:05;;;;;;;;;;;;;;;17.11;47.19;101105.16;4961010;29;1164;-52
2023/09/27 12:03:30;;;;;;;;;;;;;;;17.23;47.01;101091.16;4960694;29;1153;-55
2023/09/27 12:05:56;;;;;;;;;;;;;;;17.15;47.04;101103.50;4954247;29;1084;-51
2023/09/27 12:08:22;;;;;;;;;;;;;;;17.16;47.32;101102.41;4957871;28;2153;-51
2023/09/27 12:10:48;;;;;;;;;;;;;;;17.06;47.15;101094.94;4960020;28;1470;-53
2023/09/27 12:13:13;;;;;;;;;;;;;;;17.24;47.10;101087.31;4960753;28;1490;-54
2023/09/27 12:15:39;;;;;;;;;;;;;;;17.21;46.93;101088.69;4960718;28;1977;-54
2023/09/27 12:18:04;;;;;;;;;;;;;;;17.19;47.17;101092.81;4948061;29;1076;-55
2023/09/27 12:20:30;;;;;;;;;;;;;;;17.20;47.37;101083.47;4953096;29;1171;-57
2023/09/27 12:22:57;;;;;;;;;;;;;;;17.15;47.46;101087.00;4948399;29;1109;-57
2023/09/27 12:25:22;;;;;;;;;;;;;;;17.21;47.35;101088.69;4951316;28;1164;-55
2023/09/27 12:27:47;;;;;;;;;;;;;;;17.18;47.17;101078.25;4960573;29;1383;-53
2023/09/27 12:30:13;;;;;;;;;;;;;;;17.24;47.28;101084.56;4960643;28;1499;-56
2023/09/27 12:32:38;;;;;;;;;;;;;;;17.34;46.84;101076.34;4960719;29;1471;-58
2023/09/27 12:35:05;;;;;;;;;;;;;;;17.28;47.14;101066.44;4957205;28;1973;-59
2023/09/27 12:37:30;;;;;;;;;;;;;;;17.27;46.84;101070.28;4964767;28;1975;-58
2023/09/27 12:39:56;;;;;;;;;;;;;;;17.23;47.22;101074.69;4963526;28;1266;-58
2023/09/27 12:42:21;;;;;;;;;;;;;;;17.32;46.94;101072.22;4960772;28;1499;-57
2023/09/27 12:44:48;;;;;;;;;;;;;;;17.22;47.15;101067.53;4960237;29;1086;-55